Terminal Aerodrome Forecast
Issued by NWS

Home | Current Version | Previous Version | Text Only | Print | Product List | Glossary On
Versions: 1 2 3 4 5 6 7 8 9 10 11 12 13 14 15 16 17 18
000
FTUS43 KGLD 231120
TAFMCK
TAF
KMCK 231120Z 2312/2412 VRB03KT 4SM BR SKC
     FM231400 VRB04KT P6SM SKC
     FM231600 17006KT P6SM FEW040 FEW270
     FM240200 13007KT P6SM FEW270
     FM240800 26005KT 6SM -SHRA BR SCT008 BKN015
     FM241100 31008KT 5SM -SHRA BR BKN005=

USA.gov is the U.S. government's official web portal to all federal, state and local government web resources and services.